createdAt,value
2023-03-31T00:00:58.531Z,32.67
2023-03-31T00:01:58.573Z,32.66
2023-03-31T00:02:58.707Z,32.63
2023-03-31T00:03:58.821Z,32.62
2023-03-31T00:04:58.753Z,32.64
2023-03-31T00:05:58.945Z,32.62
2023-03-31T00:06:58.858Z,32.61
2023-03-31T00:07:58.796Z,32.61
2023-03-31T00:08:58.852Z,32.59
2023-03-31T00:10:15.954Z,32.60
2023-03-31T00:10:59.889Z,32.59
2023-03-31T00:11:58.814Z,32.57
2023-03-31T00:12:58.840Z,32.58
2023-03-31T00:13:58.789Z,32.58
2023-03-31T00:14:58.771Z,32.57
2023-03-31T00:15:58.840Z,32.56
2023-03-31T00:16:58.875Z,32.57
2023-03-31T00:17:58.800Z,32.53
2023-03-31T00:18:58.746Z,32.50
2023-03-31T00:19:58.695Z,32.51
2023-03-31T00:21:00.562Z,32.51
2023-03-31T00:21:58.686Z,32.47
2023-03-31T00:22:58.687Z,32.48
2023-03-31T00:23:58.646Z,32.52
2023-03-31T00:24:58.648Z,32.50
2023-03-31T00:25:58.607Z,32.47
2023-03-31T00:26:58.638Z,32.47
2023-03-31T00:27:58.617Z,32.46
2023-03-31T00:28:58.585Z,32.45
2023-03-31T00:29:58.556Z,32.45
2023-03-31T00:30:58.555Z,32.45
2023-03-31T00:31:58.611Z,32.43
2023-03-31T00:32:58.585Z,32.43
2023-03-31T00:33:58.526Z,32.41
2023-03-31T00:34:58.516Z,32.40
2023-03-31T00:35:58.477Z,32.43
2023-03-31T00:36:58.463Z,32.40
2023-03-31T00:37:58.457Z,32.39
2023-03-31T00:38:58.411Z,32.37
2023-03-31T00:39:58.424Z,32.35
2023-03-31T00:40:58.389Z,32.36
2023-03-31T00:41:58.363Z,32.33
2023-03-31T00:42:58.373Z,32.34
2023-03-31T00:43:58.343Z,32.36
2023-03-31T00:44:58.331Z,32.34
2023-03-31T00:45:58.358Z,32.31
2023-03-31T00:46:58.311Z,32.34
2023-03-31T00:47:58.352Z,32.32
2023-03-31T00:48:58.239Z,32.30
2023-03-31T00:49:58.244Z,32.30
2023-03-31T00:50:58.214Z,32.30
2023-03-31T00:51:58.191Z,32.28
2023-03-31T00:52:58.181Z,32.28
2023-03-31T00:53:58.147Z,32.28
2023-03-31T00:54:58.138Z,32.26
2023-03-31T00:55:58.174Z,32.25
2023-03-31T00:56:58.259Z,32.26
2023-03-31T00:57:58.229Z,32.25
2023-03-31T00:58:58.278Z,32.24
2023-03-31T00:59:58.337Z,32.26
2023-03-31T01:00:58.425Z,32.25
2023-03-31T01:01:58.378Z,32.24
2023-03-31T01:02:58.488Z,32.23
2023-03-31T01:03:58.488Z,32.21
2023-03-31T01:04:58.537Z,32.22
2023-03-31T01:05:58.516Z,32.20
2023-03-31T01:06:58.587Z,32.20
2023-03-31T01:07:58.601Z,32.18
2023-03-31T01:08:58.636Z,32.18
2023-03-31T01:09:58.694Z,32.17
2023-03-31T01:10:58.741Z,32.17
2023-03-31T01:11:58.735Z,32.15
2023-03-31T01:12:58.806Z,32.14
2023-03-31T01:13:58.846Z,32.15
2023-03-31T01:14:58.914Z,32.13
2023-03-31T01:15:58.938Z,32.15
2023-03-31T01:16:59.078Z,32.13
2023-03-31T01:17:59.025Z,32.10
2023-03-31T01:18:59.023Z,32.10
2023-03-31T01:19:59.183Z,32.08
2023-03-31T01:20:59.189Z,32.08
2023-03-31T01:21:59.186Z,32.09
2023-03-31T01:22:59.206Z,32.09
2023-03-31T01:23:59.205Z,32.07
2023-03-31T01:24:59.268Z,32.06
2023-03-31T01:25:59.276Z,32.05
2023-03-31T01:26:59.321Z,32.04
2023-03-31T01:27:59.347Z,32.02
2023-03-31T01:28:59.387Z,32.02
2023-03-31T01:29:59.401Z,32.03
2023-03-31T01:30:59.456Z,32.00
2023-03-31T01:31:59.500Z,31.98
2023-03-31T01:32:59.558Z,31.98
2023-03-31T01:33:59.588Z,31.99
2023-03-31T01:34:59.625Z,31.95
2023-03-31T01:35:59.761Z,31.96
2023-03-31T01:36:59.700Z,31.93
2023-03-31T01:37:59.777Z,31.93
2023-03-31T01:38:59.788Z,31.91
2023-03-31T01:39:59.838Z,31.94
2023-03-31T01:40:59.837Z,31.90
2023-03-31T01:41:59.908Z,31.92
2023-03-31T01:42:59.921Z,31.91
2023-03-31T01:43:59.966Z,31.87
2023-03-31T01:45:00.018Z,31.90
2023-03-31T01:46:00.139Z,31.86
2023-03-31T01:47:00.113Z,31.85
2023-03-31T01:48:00.173Z,31.85
2023-03-31T01:49:00.128Z,31.84
2023-03-31T01:50:00.215Z,31.83
2023-03-31T01:51:00.240Z,31.81
2023-03-31T01:52:00.369Z,31.79
2023-03-31T01:53:00.313Z,31.81
2023-03-31T01:54:00.378Z,31.81
2023-03-31T01:55:00.417Z,31.79
2023-03-31T01:56:00.446Z,31.79
2023-03-31T01:57:00.583Z,31.78
2023-03-31T01:58:00.559Z,31.79
2023-03-31T01:59:00.582Z,31.81
2023-03-31T02:00:00.600Z,31.77
2023-03-31T02:01:00.646Z,31.76
2023-03-31T02:02:00.749Z,31.76
2023-03-31T02:03:00.786Z,31.78
2023-03-31T02:04:00.860Z,31.74
2023-03-31T02:05:00.803Z,31.73
2023-03-31T02:06:00.820Z,31.73
2023-03-31T02:07:00.868Z,31.72
2023-03-31T02:08:00.869Z,31.71
2023-03-31T02:09:00.932Z,31.72
2023-03-31T02:10:00.974Z,31.72
2023-03-31T02:11:01.000Z,31.70
2023-03-31T02:12:01.010Z,31.72
2023-03-31T02:13:01.083Z,31.70
2023-03-31T02:14:01.060Z,31.68
2023-03-31T02:15:01.113Z,31.63
2023-03-31T02:16:01.216Z,31.63
2023-03-31T02:17:01.219Z,31.65
2023-03-31T02:18:01.314Z,31.65
2023-03-31T02:19:01.277Z,31.63
2023-03-31T02:20:01.340Z,31.65
2023-03-31T02:21:01.387Z,31.62
2023-03-31T02:22:01.402Z,31.59
2023-03-31T02:23:01.461Z,31.61
2023-03-31T02:24:01.450Z,31.60
2023-03-31T02:25:01.530Z,31.59
2023-03-31T02:26:01.574Z,31.59
2023-03-31T02:27:01.558Z,31.58
2023-03-31T02:28:01.572Z,31.56
2023-03-31T02:29:01.596Z,31.58
2023-03-31T02:30:01.675Z,31.57
2023-03-31T02:31:01.719Z,31.56
2023-03-31T02:32:01.783Z,31.55
2023-03-31T02:33:01.813Z,31.54
2023-03-31T02:34:01.834Z,31.52
2023-03-31T02:35:01.874Z,31.52
2023-03-31T02:36:01.938Z,31.52
2023-03-31T02:37:01.933Z,31.54
2023-03-31T02:38:01.983Z,31.50
2023-03-31T02:39:02.033Z,31.51
2023-03-31T02:40:02.078Z,31.50
2023-03-31T02:41:02.070Z,31.50
2023-03-31T02:42:02.120Z,31.48
2023-03-31T02:43:02.191Z,31.47
2023-03-31T02:44:02.233Z,31.46
2023-03-31T02:45:02.272Z,31.44
2023-03-31T02:46:02.358Z,31.45
2023-03-31T02:47:02.358Z,31.41
2023-03-31T02:48:02.432Z,31.41
2023-03-31T02:49:02.434Z,31.42
2023-03-31T02:50:02.499Z,31.41
2023-03-31T02:51:02.512Z,31.42
2023-03-31T02:52:02.537Z,31.40
2023-03-31T02:53:02.583Z,31.39
2023-03-31T02:54:02.649Z,31.36
2023-03-31T02:55:02.620Z,31.38
2023-03-31T02:56:02.729Z,31.40
2023-03-31T02:57:02.707Z,31.39
2023-03-31T02:58:02.735Z,31.38
2023-03-31T02:59:02.773Z,31.37
2023-03-31T03:00:02.789Z,31.35
2023-03-31T03:01:02.898Z,31.35
2023-03-31T03:02:02.895Z,31.36
2023-03-31T03:03:02.974Z,31.32
2023-03-31T03:04:02.971Z,31.31
2023-03-31T03:05:02.980Z,31.28
2023-03-31T03:06:05.210Z,31.31
2023-03-31T03:07:03.139Z,31.29
2023-03-31T03:08:03.192Z,31.27
2023-03-31T03:09:03.197Z,31.28
2023-03-31T03:10:03.267Z,31.26
2023-03-31T03:11:03.256Z,31.22
2023-03-31T03:12:03.299Z,31.22
2023-03-31T03:13:03.340Z,31.19
2023-03-31T03:14:03.363Z,31.18
2023-03-31T03:15:03.372Z,31.11
2023-03-31T03:16:03.430Z,31.11
2023-03-31T03:17:03.418Z,31.07
2023-03-31T03:18:03.529Z,31.09
2023-03-31T03:19:03.480Z,31.04
2023-03-31T03:20:03.511Z,31.03
2023-03-31T03:21:03.527Z,31.02
2023-03-31T03:22:03.539Z,31.03
2023-03-31T03:23:03.576Z,31.03
2023-03-31T03:24:03.590Z,30.99
2023-03-31T03:25:03.623Z,30.99
2023-03-31T03:26:03.846Z,30.97
2023-03-31T03:27:03.731Z,30.94
2023-03-31T03:28:03.746Z,30.94
2023-03-31T03:29:03.758Z,30.92
2023-03-31T03:30:03.771Z,30.92
2023-03-31T03:31:03.849Z,30.91
2023-03-31T03:32:03.819Z,30.88
2023-03-31T03:33:03.842Z,30.85
2023-03-31T03:34:03.857Z,30.85
2023-03-31T03:35:03.870Z,30.82
2023-03-31T03:36:04.037Z,30.81
2023-03-31T03:37:03.922Z,30.80
2023-03-31T03:38:04.011Z,30.79
2023-03-31T03:39:04.250Z,30.76
2023-03-31T03:40:03.971Z,30.75
2023-03-31T03:41:04.015Z,30.75
2023-03-31T03:42:03.992Z,30.73
2023-03-31T03:43:04.017Z,30.72
2023-03-31T03:44:04.042Z,30.71
2023-03-31T03:45:04.058Z,30.70
2023-03-31T03:46:04.290Z,30.67
2023-03-31T03:47:04.076Z,30.65
2023-03-31T03:48:04.162Z,30.66
2023-03-31T03:49:04.108Z,30.64
2023-03-31T03:50:04.132Z,30.63
2023-03-31T03:51:04.138Z,30.62
2023-03-31T03:52:04.158Z,30.60
2023-03-31T03:53:04.174Z,30.59
2023-03-31T03:54:04.176Z,30.58
2023-03-31T03:55:04.221Z,30.57
2023-03-31T03:56:04.519Z,30.57
2023-03-31T03:57:04.274Z,30.54
2023-03-31T03:58:04.214Z,30.51
2023-03-31T03:59:04.258Z,30.51
2023-03-31T04:00:04.213Z,30.49
2023-03-31T04:01:04.259Z,30.49
2023-03-31T04:02:04.313Z,30.48
2023-03-31T04:03:04.323Z,30.45
2023-03-31T04:04:04.311Z,30.44
2023-03-31T04:05:04.330Z,30.40
2023-03-31T04:06:04.631Z,30.40
2023-03-31T04:07:04.296Z,30.42
2023-03-31T04:08:04.327Z,30.40
2023-03-31T04:09:04.307Z,30.37
2023-03-31T04:10:04.316Z,30.37
2023-03-31T04:11:04.311Z,30.35
2023-03-31T04:12:04.328Z,30.36
2023-03-31T04:13:04.279Z,30.33
2023-03-31T04:14:04.307Z,30.32
2023-03-31T04:15:04.284Z,30.28
2023-03-31T04:16:04.594Z,30.27
2023-03-31T04:17:04.337Z,30.27
2023-03-31T04:18:04.367Z,30.28
2023-03-31T04:19:04.329Z,30.28
2023-03-31T04:20:04.321Z,30.26
2023-03-31T04:21:04.361Z,30.26
2023-03-31T04:22:04.344Z,30.24
2023-03-31T04:23:04.333Z,30.22
2023-03-31T04:24:04.395Z,30.24
2023-03-31T04:25:04.327Z,30.23
2023-03-31T04:26:04.688Z,30.22
2023-03-31T04:27:04.335Z,30.20
2023-03-31T04:28:04.378Z,30.19
2023-03-31T04:29:04.342Z,30.20
2023-03-31T04:30:04.351Z,30.18
2023-03-31T04:31:04.355Z,30.15
2023-03-31T04:32:04.396Z,30.16
2023-03-31T04:33:04.427Z,30.15
2023-03-31T04:34:04.321Z,30.11
2023-03-31T04:35:04.308Z,30.10
2023-03-31T04:36:04.780Z,30.09
2023-03-31T04:37:04.298Z,30.08
2023-03-31T04:38:04.261Z,30.07
2023-03-31T04:39:04.292Z,30.07
2023-03-31T04:40:04.281Z,30.07
2023-03-31T04:41:04.229Z,30.04
2023-03-31T04:42:04.260Z,30.05
2023-03-31T04:43:04.204Z,30.03
2023-03-31T04:44:04.248Z,30.03
2023-03-31T04:45:04.248Z,30.02
2023-03-31T04:46:04.412Z,30.01
2023-03-31T04:47:04.205Z,30.01
2023-03-31T04:48:04.264Z,30.01
2023-03-31T04:49:04.222Z,30.00
2023-03-31T04:50:04.211Z,30.00
2023-03-31T04:51:04.195Z,29.98
2023-03-31T04:52:04.206Z,29.96
2023-03-31T04:53:04.177Z,29.98
2023-03-31T04:54:04.183Z,29.99
2023-03-31T04:55:04.182Z,29.97
2023-03-31T04:56:04.266Z,29.97
2023-03-31T04:57:04.178Z,29.97
2023-03-31T04:58:04.156Z,29.96
2023-03-31T04:59:04.155Z,29.96
2023-03-31T05:00:04.140Z,29.95
2023-03-31T05:01:11.187Z,29.95
2023-03-31T05:02:04.289Z,29.98
2023-03-31T05:03:04.211Z,29.98
2023-03-31T05:04:04.111Z,30.00
2023-03-31T05:05:04.070Z,29.99
2023-03-31T05:06:04.512Z,29.97
2023-03-31T05:07:04.001Z,29.99
2023-03-31T05:08:04.010Z,30.00
2023-03-31T05:09:03.976Z,30.01
2023-03-31T05:10:03.926Z,29.98
2023-03-31T05:11:03.892Z,29.99
2023-03-31T05:12:03.848Z,29.96
2023-03-31T05:13:03.841Z,29.98
2023-03-31T05:14:03.809Z,29.95
2023-03-31T05:15:03.767Z,29.94
2023-03-31T05:16:04.011Z,29.92
2023-03-31T05:17:03.733Z,29.95
2023-03-31T05:18:03.699Z,29.99
2023-03-31T05:19:03.641Z,30.04
2023-03-31T05:20:03.590Z,30.05
2023-03-31T05:21:03.600Z,30.06
2023-03-31T05:22:03.554Z,30.08
2023-03-31T05:23:03.567Z,30.06
2023-03-31T05:24:03.502Z,30.06
2023-03-31T05:25:03.486Z,30.09
2023-03-31T05:26:03.654Z,30.08
2023-03-31T05:27:03.412Z,30.08
2023-03-31T05:28:03.411Z,30.07
2023-03-31T05:29:03.383Z,30.07
2023-03-31T05:30:03.332Z,30.07
2023-03-31T05:31:03.300Z,30.07
2023-03-31T05:32:03.352Z,30.06
2023-03-31T05:33:03.328Z,30.17
2023-03-31T05:34:03.316Z,30.18
2023-03-31T05:35:03.196Z,30.37
2023-03-31T05:36:03.263Z,30.68
2023-03-31T05:37:03.142Z,31.77
2023-03-31T05:38:03.169Z,31.52
2023-03-31T05:39:03.316Z,31.27
2023-03-31T05:40:03.053Z,32.02
2023-03-31T05:41:03.056Z,32.12
2023-03-31T05:42:02.995Z,32.06
2023-03-31T05:43:03.014Z,32.49
2023-03-31T05:44:03.007Z,32.45
2023-03-31T05:45:03.066Z,32.92
2023-03-31T05:46:10.342Z,32.46
2023-03-31T05:47:03.084Z,32.21
2023-03-31T05:48:03.125Z,32.15
2023-03-31T05:49:03.054Z,32.27
2023-03-31T05:50:03.078Z,32.29
2023-03-31T05:51:02.995Z,32.35
2023-03-31T05:52:03.013Z,32.60
2023-03-31T05:53:02.976Z,32.27
2023-03-31T05:54:02.995Z,32.04
2023-03-31T05:55:02.920Z,32.06
2023-03-31T05:56:04.034Z,32.00
2023-03-31T05:57:03.027Z,31.69
2023-03-31T05:58:02.853Z,31.51
2023-03-31T05:59:03.261Z,31.70
2023-03-31T06:00:03.755Z,31.97
2023-03-31T06:01:02.805Z,31.92
2023-03-31T06:02:02.827Z,31.70
2023-03-31T06:03:02.897Z,31.84
2023-03-31T06:04:02.836Z,32.83
2023-03-31T06:05:02.783Z,33.00
2023-03-31T06:06:02.805Z,33.16
2023-03-31T06:07:02.842Z,33.09
2023-03-31T06:08:02.912Z,33.13
2023-03-31T06:09:02.969Z,33.23
2023-03-31T06:10:03.339Z,33.22
2023-03-31T06:11:02.952Z,33.23
2023-03-31T06:12:02.986Z,33.21
2023-03-31T06:13:02.949Z,33.19
2023-03-31T06:14:02.973Z,33.18
2023-03-31T06:15:02.986Z,33.23
2023-03-31T06:16:03.094Z,33.28
2023-03-31T06:17:03.008Z,33.26
2023-03-31T06:18:03.026Z,33.38
2023-03-31T06:19:02.999Z,33.37
2023-03-31T06:20:07.675Z,33.44
2023-03-31T06:21:04.120Z,33.53
2023-03-31T06:22:03.755Z,33.49
2023-03-31T06:23:02.911Z,33.51
2023-03-31T06:24:02.836Z,33.63
2023-03-31T06:25:02.899Z,33.56
2023-03-31T06:26:02.790Z,33.64
2023-03-31T06:27:02.886Z,33.60
2023-03-31T06:28:02.750Z,33.64
2023-03-31T06:29:02.685Z,33.77
2023-03-31T06:30:02.717Z,33.87
2023-03-31T06:31:02.697Z,33.99
2023-03-31T06:32:02.695Z,34.04
2023-03-31T06:33:02.597Z,34.10
2023-03-31T06:34:02.515Z,34.17
2023-03-31T06:35:02.495Z,34.20
2023-03-31T06:36:02.488Z,34.25
2023-03-31T06:37:02.410Z,34.33
2023-03-31T06:38:02.382Z,34.35
2023-03-31T06:39:02.353Z,34.33
2023-03-31T06:40:02.298Z,34.32
2023-03-31T06:41:02.301Z,34.32
2023-03-31T06:42:02.226Z,34.28
2023-03-31T06:43:02.182Z,34.29
2023-03-31T06:44:02.201Z,34.35
2023-03-31T06:45:02.129Z,34.37
2023-03-31T06:46:02.112Z,34.51
2023-03-31T06:47:02.058Z,34.52
2023-03-31T06:48:02.080Z,34.53
2023-03-31T06:49:01.974Z,34.63
2023-03-31T06:50:01.923Z,34.70
2023-03-31T06:51:01.903Z,34.70
2023-03-31T06:52:01.863Z,34.63
2023-03-31T06:53:01.819Z,34.34
2023-03-31T06:54:01.780Z,34.10
2023-03-31T06:55:01.777Z,33.36
2023-03-31T06:56:01.765Z,33.41
2023-03-31T06:57:01.737Z,33.45
2023-03-31T06:58:01.671Z,33.55
2023-03-31T06:59:01.705Z,33.39
2023-03-31T07:00:01.708Z,33.39
2023-03-31T07:01:01.738Z,33.08
2023-03-31T07:02:01.681Z,33.31
2023-03-31T07:03:01.884Z,33.18
2023-03-31T07:04:01.773Z,33.28
2023-03-31T07:05:01.934Z,33.27
2023-03-31T07:06:01.751Z,33.33
2023-03-31T07:07:01.871Z,33.36
2023-03-31T07:08:01.825Z,33.41
2023-03-31T07:09:01.800Z,33.27
2023-03-31T07:10:01.806Z,33.30
2023-03-31T07:11:01.852Z,33.50
2023-03-31T07:12:01.855Z,33.27
2023-03-31T07:13:04.416Z,33.16
2023-03-31T07:14:01.855Z,33.21
2023-03-31T07:15:01.895Z,33.22
2023-03-31T07:16:01.882Z,33.24
2023-03-31T07:17:01.822Z,33.33
2023-03-31T07:18:01.812Z,33.21
2023-03-31T07:19:01.780Z,33.28
2023-03-31T07:20:01.866Z,33.36
2023-03-31T07:21:01.787Z,33.47
2023-03-31T07:22:01.714Z,33.42
2023-03-31T07:23:01.680Z,33.40
2023-03-31T07:24:01.678Z,33.37
2023-03-31T07:25:01.857Z,33.56
2023-03-31T07:26:01.640Z,33.56
2023-03-31T07:27:01.632Z,33.61
2023-03-31T07:28:01.645Z,33.40
2023-03-31T07:29:01.558Z,33.31
2023-03-31T07:30:01.602Z,33.38
2023-03-31T07:31:01.550Z,33.43
2023-03-31T07:32:01.543Z,33.35
2023-03-31T07:33:01.572Z,33.91
2023-03-31T07:34:01.520Z,34.00
2023-03-31T07:35:01.502Z,33.95
2023-03-31T07:36:11.753Z,33.92
2023-03-31T07:37:02.459Z,34.37
2023-03-31T07:38:01.434Z,35.46
2023-03-31T07:39:01.459Z,35.49
2023-03-31T07:40:01.420Z,35.39
2023-03-31T07:41:08.335Z,35.44
2023-03-31T07:42:02.394Z,35.43
2023-03-31T07:43:01.372Z,35.32
2023-03-31T07:44:02.372Z,34.86
2023-03-31T07:45:01.362Z,34.49
2023-03-31T07:46:01.382Z,34.25
2023-03-31T07:47:01.375Z,33.72
2023-03-31T07:48:01.400Z,33.63
2023-03-31T07:49:01.313Z,33.78
2023-03-31T07:50:01.294Z,33.86
2023-03-31T07:51:01.262Z,33.83
2023-03-31T07:52:01.233Z,33.86
2023-03-31T07:53:01.262Z,33.83
2023-03-31T07:54:01.212Z,33.64
2023-03-31T07:55:01.255Z,33.56
2023-03-31T07:56:01.448Z,33.50
2023-03-31T07:57:01.219Z,33.42
2023-03-31T07:58:01.173Z,33.53
2023-03-31T07:59:01.188Z,33.67
2023-03-31T08:00:01.181Z,33.73
2023-03-31T08:01:01.135Z,33.54
2023-03-31T08:02:01.176Z,33.50
2023-03-31T08:03:01.169Z,33.55
2023-03-31T08:04:01.141Z,33.59
2023-03-31T08:05:01.055Z,33.60
2023-03-31T08:06:01.388Z,33.71
2023-03-31T08:07:01.067Z,33.91
2023-03-31T08:08:01.025Z,34.08
2023-03-31T08:09:01.067Z,33.99
2023-03-31T08:10:01.063Z,34.00
2023-03-31T08:11:01.403Z,33.91
2023-03-31T08:12:01.137Z,33.81
2023-03-31T08:13:01.185Z,33.78
2023-03-31T08:14:01.325Z,33.71
2023-03-31T08:15:01.187Z,33.72
2023-03-31T08:16:01.197Z,33.91
2023-03-31T08:17:01.153Z,34.06
2023-03-31T08:18:01.244Z,33.90
2023-03-31T08:19:01.213Z,33.90
2023-03-31T08:20:06.164Z,33.95
2023-03-31T08:21:02.255Z,34.26
2023-03-31T08:22:01.245Z,34.18
2023-03-31T08:23:01.476Z,34.54
2023-03-31T08:24:01.211Z,34.89
2023-03-31T08:25:01.188Z,35.08
2023-03-31T08:26:01.208Z,35.04
2023-03-31T08:27:01.202Z,34.78
2023-03-31T08:28:01.193Z,34.68
2023-03-31T08:29:01.173Z,34.67
2023-03-31T08:30:01.192Z,34.57
2023-03-31T08:31:01.130Z,34.89
2023-03-31T08:32:01.204Z,35.16
2023-03-31T08:33:02.061Z,35.48
2023-03-31T08:34:01.082Z,35.38
2023-03-31T08:35:01.109Z,35.18
2023-03-31T08:36:01.062Z,34.83
2023-03-31T08:37:01.068Z,34.60
2023-03-31T08:38:01.022Z,34.76
2023-03-31T08:39:01.014Z,34.70
2023-03-31T08:40:00.999Z,35.08
2023-03-31T08:41:00.995Z,35.08
2023-03-31T08:42:01.008Z,34.94
2023-03-31T08:43:00.909Z,34.84
2023-03-31T08:44:00.952Z,34.76
2023-03-31T08:45:00.949Z,34.91
2023-03-31T08:46:00.955Z,35.10
2023-03-31T08:47:00.890Z,35.34
2023-03-31T08:48:00.906Z,35.52
2023-03-31T08:49:00.911Z,35.29
2023-03-31T08:50:01.873Z,35.35
2023-03-31T08:51:00.960Z,36.92
2023-03-31T08:52:00.869Z,36.13
2023-03-31T08:53:00.822Z,36.61
2023-03-31T08:54:00.834Z,36.46
2023-03-31T08:55:00.841Z,36.85
2023-03-31T08:56:00.852Z,36.08
2023-03-31T08:57:00.789Z,36.23
2023-03-31T08:58:00.810Z,36.15
2023-03-31T08:59:00.812Z,35.91
2023-03-31T09:00:00.770Z,35.83
2023-03-31T09:01:00.929Z,36.05
2023-03-31T09:02:00.865Z,35.64
2023-03-31T09:03:00.863Z,35.53
2023-03-31T09:04:00.937Z,35.59
2023-03-31T09:05:00.691Z,36.14
2023-03-31T09:06:01.213Z,36.02
2023-03-31T09:07:00.670Z,36.12
2023-03-31T09:08:00.648Z,35.86
2023-03-31T09:09:00.630Z,36.01
2023-03-31T09:10:00.640Z,36.05
2023-03-31T09:11:00.622Z,35.62
2023-03-31T09:12:00.602Z,35.35
2023-03-31T09:13:00.599Z,35.21
2023-03-31T09:14:00.565Z,35.05
2023-03-31T09:15:00.533Z,34.84
2023-03-31T09:16:00.561Z,34.56
2023-03-31T09:17:00.569Z,34.68
2023-03-31T09:18:00.503Z,34.65
2023-03-31T09:19:00.495Z,35.17
2023-03-31T09:20:00.514Z,35.12
2023-03-31T09:21:00.494Z,34.68
2023-03-31T09:22:00.452Z,34.97
2023-03-31T09:23:00.465Z,34.95
2023-03-31T09:24:00.453Z,35.10
2023-03-31T09:25:00.502Z,35.13
2023-03-31T09:26:00.490Z,35.07
2023-03-31T09:27:00.490Z,35.07
2023-03-31T09:28:00.474Z,35.03
2023-03-31T09:29:00.468Z,34.86
2023-03-31T09:30:00.490Z,34.55
2023-03-31T09:31:00.490Z,34.41
2023-03-31T09:32:00.709Z,34.60
2023-03-31T09:33:00.551Z,34.47
2023-03-31T09:34:00.475Z,34.72
2023-03-31T09:35:00.465Z,34.81
2023-03-31T09:36:00.486Z,34.69
2023-03-31T09:37:00.924Z,34.62
2023-03-31T09:38:00.448Z,33.98
2023-03-31T09:39:00.453Z,34.57
2023-03-31T09:40:00.499Z,35.36
2023-03-31T09:41:00.506Z,35.52
2023-03-31T09:42:00.962Z,35.59
2023-03-31T09:43:00.572Z,35.46
2023-03-31T09:44:00.570Z,35.75
2023-03-31T09:45:00.588Z,35.55
2023-03-31T09:47:00.942Z,34.65
2023-03-31T09:48:00.592Z,34.02
2023-03-31T09:49:00.560Z,33.86
2023-03-31T09:50:00.567Z,33.98
2023-03-31T09:51:00.524Z,34.26
2023-03-31T09:52:00.520Z,34.32
2023-03-31T09:53:00.466Z,34.34
2023-03-31T09:54:00.460Z,34.39
2023-03-31T09:55:00.451Z,34.51
2023-03-31T09:56:00.424Z,34.73
2023-03-31T09:57:00.403Z,34.79
2023-03-31T09:58:00.394Z,34.84
2023-03-31T09:59:00.369Z,34.56
2023-03-31T10:00:00.336Z,34.24
2023-03-31T10:01:00.446Z,34.17
2023-03-31T10:02:00.550Z,34.04
2023-03-31T10:03:00.366Z,34.14
2023-03-31T10:04:00.311Z,34.30
2023-03-31T10:05:00.253Z,34.05
2023-03-31T10:06:00.225Z,34.12
2023-03-31T10:07:00.310Z,34.11
2023-03-31T10:08:00.216Z,33.93
2023-03-31T10:09:00.209Z,34.40
2023-03-31T10:10:00.256Z,34.45
2023-03-31T10:11:00.163Z,34.51
2023-03-31T10:12:00.186Z,34.64
2023-03-31T10:13:00.222Z,34.58
2023-03-31T10:14:00.175Z,34.74
2023-03-31T10:15:00.128Z,34.58
2023-03-31T10:16:00.126Z,34.46
2023-03-31T10:17:00.450Z,34.58
2023-03-31T10:18:00.182Z,34.61
2023-03-31T10:19:00.046Z,34.54
2023-03-31T10:20:00.221Z,34.63
2023-03-31T10:21:00.110Z,34.53
2023-03-31T10:22:00.028Z,34.74
2023-03-31T10:22:59.981Z,34.76
2023-03-31T10:24:00.169Z,34.74
2023-03-31T10:25:00.205Z,34.58
2023-03-31T10:26:00.037Z,34.69
2023-03-31T10:26:59.953Z,34.67
2023-03-31T10:27:59.936Z,34.57
2023-03-31T10:28:59.946Z,34.70
2023-03-31T10:29:59.959Z,34.74
2023-03-31T10:30:59.981Z,35.01
2023-03-31T10:31:59.910Z,35.64
2023-03-31T10:33:59.908Z,35.48
2023-03-31T10:34:59.901Z,35.48
2023-03-31T10:35:59.910Z,35.36
2023-03-31T10:37:00.050Z,35.54
2023-03-31T10:37:59.877Z,35.47
2023-03-31T10:38:59.938Z,35.60
2023-03-31T10:39:59.944Z,35.53
2023-03-31T10:41:00.012Z,35.49
2023-03-31T10:42:00.521Z,35.45
2023-03-31T10:43:00.040Z,35.32
2023-03-31T10:44:00.186Z,35.37
2023-03-31T10:45:00.119Z,35.37
2023-03-31T10:46:00.238Z,35.28
2023-03-31T10:47:00.260Z,35.25
2023-03-31T10:48:00.610Z,35.31
2023-03-31T10:49:00.316Z,35.21
2023-03-31T10:50:00.349Z,35.20
2023-03-31T10:51:00.303Z,35.18
2023-03-31T10:52:00.307Z,35.17
2023-03-31T10:53:00.446Z,35.20
2023-03-31T10:54:00.356Z,35.17
2023-03-31T10:55:00.348Z,35.15
2023-03-31T10:56:00.427Z,35.10
2023-03-31T10:57:00.496Z,35.08
2023-03-31T10:58:00.495Z,35.05
2023-03-31T10:59:05.728Z,35.04
2023-03-31T11:00:01.490Z,35.01
2023-03-31T11:01:00.492Z,34.97
2023-03-31T11:02:00.972Z,34.94
2023-03-31T11:03:00.527Z,34.95
2023-03-31T11:04:00.612Z,34.89
2023-03-31T11:05:00.412Z,34.96
2023-03-31T11:06:00.348Z,34.88
2023-03-31T11:07:00.352Z,34.87
2023-03-31T11:08:00.363Z,34.85
2023-03-31T11:09:00.319Z,34.84
2023-03-31T11:10:00.351Z,34.89
2023-03-31T11:11:00.341Z,34.86
2023-03-31T11:12:00.385Z,34.88
2023-03-31T11:13:00.486Z,34.86
2023-03-31T11:14:00.429Z,34.86
2023-03-31T11:15:00.466Z,34.86
2023-03-31T11:16:00.546Z,34.85
2023-03-31T11:17:00.592Z,34.81
2023-03-31T11:18:00.641Z,34.84
2023-03-31T11:19:00.550Z,34.84
2023-03-31T11:20:00.604Z,34.82
2023-03-31T11:21:00.605Z,34.79
2023-03-31T11:22:00.615Z,34.75
2023-03-31T11:23:00.654Z,34.80
2023-03-31T11:24:00.688Z,34.79
2023-03-31T11:25:00.703Z,34.78
2023-03-31T11:26:00.762Z,34.74
2023-03-31T11:27:00.758Z,34.71
2023-03-31T11:28:00.974Z,34.71
2023-03-31T11:29:00.825Z,34.72
2023-03-31T11:30:00.891Z,34.68
2023-03-31T11:31:00.921Z,34.68
2023-03-31T11:32:01.019Z,34.70
2023-03-31T11:33:01.517Z,34.69
2023-03-31T11:34:01.008Z,34.64
2023-03-31T11:35:01.054Z,34.66
2023-03-31T11:36:01.095Z,34.66
2023-03-31T11:37:01.123Z,34.63
2023-03-31T11:38:01.475Z,34.64
2023-03-31T11:39:01.211Z,34.69
2023-03-31T11:40:01.330Z,34.63
2023-03-31T11:41:01.268Z,34.63
2023-03-31T11:42:01.326Z,34.59
2023-03-31T11:43:01.350Z,34.60
2023-03-31T11:44:01.392Z,34.57
2023-03-31T11:45:01.490Z,34.61
2023-03-31T11:46:01.531Z,34.59
2023-03-31T11:47:01.561Z,34.58
2023-03-31T11:48:01.604Z,34.54
2023-03-31T11:49:01.595Z,34.54
2023-03-31T11:50:01.601Z,34.51
2023-03-31T11:51:01.637Z,34.58
2023-03-31T11:52:01.682Z,34.54
2023-03-31T11:53:01.759Z,34.54
2023-03-31T11:54:01.768Z,34.54
2023-03-31T11:55:03.323Z,34.52
2023-03-31T11:56:01.813Z,34.48
2023-03-31T11:57:01.864Z,34.51
2023-03-31T11:58:01.892Z,34.51
2023-03-31T11:59:01.920Z,34.48
2023-03-31T12:00:01.943Z,34.46
2023-03-31T12:01:03.523Z,34.46
2023-03-31T12:02:01.965Z,34.46
2023-03-31T12:03:02.073Z,34.45
2023-03-31T12:04:02.061Z,34.42
2023-03-31T12:05:02.078Z,34.41
2023-03-31T12:06:02.146Z,34.39
2023-03-31T12:07:02.643Z,34.39
2023-03-31T12:08:02.195Z,34.39
2023-03-31T12:09:02.172Z,34.35
2023-03-31T12:10:02.250Z,34.37
2023-03-31T12:11:02.290Z,34.35
2023-03-31T12:12:02.252Z,34.35
2023-03-31T12:13:03.232Z,34.38
2023-03-31T12:14:02.354Z,34.37
2023-03-31T12:15:02.395Z,34.33
2023-03-31T12:16:02.469Z,34.34
2023-03-31T12:17:02.438Z,34.36
2023-03-31T12:18:02.550Z,34.37
2023-03-31T12:19:02.544Z,34.37
2023-03-31T12:20:02.546Z,34.34
2023-03-31T12:21:02.623Z,34.34
2023-03-31T12:22:02.642Z,34.35
2023-03-31T12:23:02.700Z,34.31
2023-03-31T12:24:02.714Z,34.32
2023-03-31T12:25:02.775Z,34.29
2023-03-31T12:26:02.840Z,34.30
2023-03-31T12:27:02.878Z,34.30
2023-03-31T12:28:02.920Z,34.34
2023-03-31T12:29:02.947Z,34.32
2023-03-31T12:30:02.988Z,34.30
2023-03-31T12:31:03.064Z,34.33
2023-03-31T12:32:03.057Z,34.32
2023-03-31T12:33:03.141Z,34.32
2023-03-31T12:34:03.133Z,34.31
2023-03-31T12:35:03.153Z,34.31
2023-03-31T12:36:03.249Z,34.27
2023-03-31T12:37:03.196Z,34.27
2023-03-31T12:38:03.229Z,34.31
2023-03-31T12:39:03.308Z,34.27
2023-03-31T12:40:03.314Z,34.30
2023-03-31T12:41:03.346Z,34.27
2023-03-31T12:42:03.374Z,34.28
2023-03-31T12:43:03.442Z,34.31
2023-03-31T12:44:03.463Z,34.30
2023-03-31T12:45:03.497Z,34.35
2023-03-31T12:46:03.709Z,34.32
2023-03-31T12:47:03.703Z,34.31
2023-03-31T12:48:03.624Z,34.31
2023-03-31T12:49:03.682Z,34.31
2023-03-31T12:50:03.670Z,34.30
2023-03-31T12:51:03.873Z,34.32
2023-03-31T12:52:03.746Z,34.35
2023-03-31T12:53:03.794Z,34.35
2023-03-31T12:54:03.853Z,34.40
2023-03-31T12:55:03.867Z,34.36